Time;durP1;ratioP1;P1;durP2;ratioP2;P2;SDS_P1;SDS_P2;PMS_P1;PMS_P2;Temp;Humidity;BMP_temperature;BMP_pressure;BME280_temperature;BME280_humidity;BME280_pressure;Samples;Min_cycle;Max_cycle;Signal;HPM_P1;HPM_P2
2023/06/04 00:01:57;;;;;;;6.82;5.38;;;18.50;49.80;;;;;;5033371;28;20029;-71
2023/06/04 00:04:23;;;;;;;11.50;5.82;;;18.50;48.90;;;;;;5033179;28;20092;-71
2023/06/04 00:06:49;;;;;;;7.50;5.45;;;18.40;49.00;;;;;;5033118;28;20029;-71
2023/06/04 00:09:14;;;;;;;8.80;5.57;;;18.40;49.20;;;;;;5032997;28;20025;-72
2023/06/04 00:11:40;;;;;;;7.28;5.30;;;18.30;50.00;;;;;;5033202;28;20021;-72
2023/06/04 00:14:05;;;;;;;8.82;6.25;;;18.30;50.10;;;;;;5033154;28;20374;-72
2023/06/04 00:16:31;;;;;;;8.25;6.13;;;18.20;50.60;;;;;;5033187;28;20029;-72
2023/06/04 00:18:57;;;;;;;6.38;5.18;;;18.10;50.30;;;;;;5033411;28;20466;-72
2023/06/04 00:21:22;;;;;;;10.15;6.40;;;18.00;50.30;;;;;;5032985;28;20029;-72
2023/06/04 00:23:48;;;;;;;8.27;5.60;;;18.00;50.40;;;;;;5032904;28;20038;-72
2023/06/04 00:26:13;;;;;;;13.15;6.40;;;17.90;50.80;;;;;;5033001;28;20482;-72
2023/06/04 00:28:39;;;;;;;8.43;5.97;;;17.90;51.50;;;;;;5033208;28;20028;-72
2023/06/04 00:31:05;;;;;;;8.90;5.85;;;17.80;51.10;;;;;;5033013;28;20034;-72
2023/06/04 00:33:31;;;;;;;7.85;5.88;;;17.70;51.10;;;;;;5033059;28;20109;-72
2023/06/04 00:35:57;;;;;;;7.28;5.57;;;17.60;51.30;;;;;;5033069;28;20430;-72
2023/06/04 00:38:22;;;;;;;8.85;5.68;;;17.50;51.60;;;;;;5032793;28;20040;-72
2023/06/04 00:40:48;;;;;;;9.65;6.07;;;17.50;51.80;;;;;;5032748;28;20087;-72
2023/06/04 00:43:13;;;;;;;8.55;5.80;;;17.50;51.90;;;;;;5033090;28;20497;-71
2023/06/04 00:45:39;;;;;;;8.80;5.75;;;17.40;51.90;;;;;;5032888;28;20024;-72
2023/06/04 00:48:06;;;;;;;7.65;6.20;;;17.40;52.20;;;;;;5032644;28;20057;-72
2023/06/04 00:50:33;;;;;;;7.97;5.32;;;17.40;52.10;;;;;;5032951;28;20033;-72
2023/06/04 00:52:58;;;;;;;7.75;6.63;;;17.40;52.60;;;;;;5033028;28;20104;-72
2023/06/04 00:55:24;;;;;;;9.88;5.72;;;17.40;52.80;;;;;;5032938;28;20052;-72
2023/06/04 00:57:50;;;;;;;8.07;5.95;;;17.40;52.50;;;;;;5032723;28;20410;-72
2023/06/04 01:00:16;;;;;;;10.82;6.38;;;17.50;52.60;;;;;;5036184;28;20033;-72
2023/06/04 01:02:44;;;;;;;7.80;5.70;;;17.40;53.20;;;;;;5036670;28;20029;-72
2023/06/04 01:05:25;;;;;;;10.65;6.47;;;17.30;53.40;;;;;;5036659;28;20026;-72
2023/06/04 01:07:52;;;;;;;8.85;6.03;;;17.40;53.70;;;;;;5036513;28;20041;-71
2023/06/04 01:10:18;;;;;;;7.82;6.13;;;17.30;54.30;;;;;;5036442;28;20110;-72
2023/06/04 01:12:44;;;;;;;7.78;6.00;;;17.30;54.50;;;;;;5036481;28;20097;-72
2023/06/04 01:15:11;;;;;;;9.05;6.35;;;17.30;54.60;;;;;;5036269;28;20451;-72
2023/06/04 01:17:41;;;;;;;9.13;6.47;;;17.20;54.90;;;;;;5036370;28;20482;-72
2023/06/04 01:20:25;;;;;;;9.82;6.43;;;17.20;55.00;;;;;;5036452;28;20113;-72
2023/06/04 01:22:56;;;;;;;10.05;6.35;;;17.20;54.80;;;;;;5036339;28;20486;-72
2023/06/04 01:25:37;;;;;;;8.27;6.50;;;17.10;55.20;;;;;;5035025;28;20116;-72
2023/06/04 01:28:04;;;;;;;9.98;6.38;;;17.10;55.30;;;;;;5036211;28;20041;-72
2023/06/04 01:30:32;;;;;;;8.40;6.60;;;17.00;55.30;;;;;;5036058;28;20029;-72
2023/06/04 01:33:00;;;;;;;10.48;7.28;;;16.90;55.80;;;;;;5036096;28;20022;-72
2023/06/04 01:35:27;;;;;;;10.85;7.10;;;16.90;55.90;;;;;;5036043;28;20034;-71
2023/06/04 01:37:54;;;;;;;10.50;6.88;;;16.90;55.90;;;;;;5036068;28;20091;-72
2023/06/04 01:40:20;;;;;;;10.07;7.18;;;16.80;56.00;;;;;;5035801;28;20061;-72
2023/06/04 01:42:45;;;;;;;11.20;7.05;;;16.70;56.10;;;;;;5038281;28;20034;-72
2023/06/04 01:45:11;;;;;;;10.32;6.78;;;16.70;56.10;;;;;;5035861;28;20025;-72
2023/06/04 01:47:37;;;;;;;10.80;7.55;;;16.60;56.30;;;;;;5035585;28;20059;-72
2023/06/04 01:50:12;;;;;;;9.20;6.75;;;16.60;56.70;;;;;;5035486;28;20087;-72
2023/06/04 01:52:39;;;;;;;9.85;7.32;;;16.60;56.60;;;;;;5035767;28;20462;-72
2023/06/04 01:55:07;;;;;;;11.48;6.70;;;16.50;56.60;;;;;;5035549;28;20030;-72
2023/06/04 01:57:33;;;;;;;10.73;6.90;;;16.50;56.50;;;;;;5035738;28;20033;-72
2023/06/04 01:59:58;;;;;;;9.82;6.75;;;16.50;56.60;;;;;;5035576;28;20028;-72
2023/06/04 02:02:25;;;;;;;10.70;6.40;;;16.40;56.80;;;;;;5035387;28;20029;-72
2023/06/04 02:04:51;;;;;;;8.45;6.13;;;16.50;56.60;;;;;;5035765;28;20112;-72
2023/06/04 02:07:20;;;;;;;9.07;6.68;;;16.40;56.20;;;;;;5035771;28;20021;-72
2023/06/04 02:09:46;;;;;;;8.43;6.50;;;16.40;56.20;;;;;;5035012;28;20060;-72
2023/06/04 02:12:12;;;;;;;9.20;7.50;;;16.40;56.60;;;;;;5035350;28;20044;-72
2023/06/04 02:14:37;;;;;;;9.02;6.90;;;16.20;57.00;;;;;;5035278;28;20374;-73
2023/06/04 02:17:04;;;;;;;10.18;7.00;;;16.20;57.50;;;;;;5035298;28;20022;-72
2023/06/04 02:19:33;;;;;;;9.52;6.15;;;16.20;57.40;;;;;;5035396;28;20187;-72
2023/06/04 02:21:59;;;;;;;9.27;6.32;;;16.10;57.50;;;;;;5035094;28;20161;-72
2023/06/04 02:24:25;;;;;;;7.65;6.75;;;16.10;57.60;;;;;;5034968;28;20021;-72
2023/06/04 02:26:50;;;;;;;9.00;6.97;;;16.00;58.00;;;;;;5035105;28;20032;-72
2023/06/04 02:29:16;;;;;;;8.90;7.40;;;16.00;57.90;;;;;;5034910;28;20026;-71
2023/06/04 02:31:41;;;;;;;8.23;6.97;;;16.00;58.30;;;;;;5034855;28;20022;-72
2023/06/04 02:34:07;;;;;;;8.68;7.55;;;16.00;58.30;;;;;;5034963;28;20033;-72
2023/06/04 02:36:33;;;;;;;11.73;7.38;;;15.80;58.70;;;;;;5034886;28;20099;-72
2023/06/04 02:39:01;;;;;;;10.32;7.10;;;15.80;58.80;;;;;;5034980;28;20116;-72
2023/06/04 02:41:26;;;;;;;10.70;7.50;;;15.80;59.00;;;;;;5034756;28;20029;-72
2023/06/04 02:43:52;;;;;;;9.35;8.02;;;15.80;59.20;;;;;;5034738;28;20095;-72
2023/06/04 02:46:17;;;;;;;12.93;7.75;;;15.70;59.30;;;;;;5034728;28;20080;-72
2023/06/04 02:48:43;;;;;;;10.27;7.60;;;15.60;59.40;;;;;;5034739;28;20088;-72
2023/06/04 02:51:10;;;;;;;10.00;7.65;;;15.60;59.20;;;;;;5033649;28;20029;-72
2023/06/04 02:53:36;;;;;;;9.05;7.05;;;15.70;59.30;;;;;;5034540;28;20473;-72
2023/06/04 02:56:02;;;;;;;9.30;6.43;;;15.70;59.10;;;;;;5034648;28;20026;-72
2023/06/04 02:58:28;;;;;;;11.95;7.10;;;15.70;58.90;;;;;;5034496;28;20037;-72
2023/06/04 03:00:54;;;;;;;6.68;5.78;;;15.70;58.60;;;;;;5034560;28;20466;-72
2023/06/04 03:03:20;;;;;;;10.02;6.72;;;15.70;58.60;;;;;;5034490;28;20231;-72
2023/06/04 03:05:46;;;;;;;8.25;6.25;;;15.70;58.50;;;;;;5034510;28;20144;-72
2023/06/04 03:08:11;;;;;;;6.93;5.63;;;15.60;58.40;;;;;;5034263;28;20029;-71
2023/06/04 03:10:37;;;;;;;14.48;7.05;;;15.50;58.60;;;;;;5034306;28;20375;-72
2023/06/04 03:13:03;;;;;;;10.02;6.53;;;15.50;59.10;;;;;;5034234;28;20741;-72
2023/06/04 03:15:29;;;;;;;9.70;7.63;;;15.50;59.40;;;;;;5034074;28;20415;-72
2023/06/04 03:17:54;;;;;;;11.18;7.32;;;15.50;59.70;;;;;;5034193;28;20079;-72
2023/06/04 03:20:23;;;;;;;12.15;8.25;;;15.30;60.00;;;;;;5033991;28;20030;-72
2023/06/04 03:22:52;;;;;;;12.70;8.48;;;15.20;60.50;;;;;;5033238;28;20041;-72
2023/06/04 03:25:18;;;;;;;11.32;7.38;;;15.10;60.90;;;;;;5033923;28;20028;-72
2023/06/04 03:27:43;;;;;;;7.72;6.63;;;15.00;61.60;;;;;;5033970;28;20025;-72
2023/06/04 03:30:09;;;;;;;11.20;8.05;;;14.90;61.80;;;;;;5034076;28;20025;-72
2023/06/04 03:32:35;;;;;;;10.18;6.95;;;14.90;61.80;;;;;;5033692;28;20029;-72
2023/06/04 03:35:01;;;;;;;9.18;7.65;;;15.00;61.80;;;;;;5033794;28;20041;-72
2023/06/04 03:37:27;;;;;;;8.82;7.55;;;15.00;61.80;;;;;;5033558;28;20097;-72
2023/06/04 03:39:53;;;;;;;10.48;7.70;;;15.00;61.60;;;;;;5033762;28;20099;-72
2023/06/04 03:42:18;;;;;;;8.45;7.43;;;15.00;61.60;;;;;;5033569;28;20068;-72
2023/06/04 03:44:44;;;;;;;8.43;7.25;;;15.10;61.60;;;;;;5033695;28;20103;-72
2023/06/04 03:47:10;;;;;;;9.60;7.13;;;15.10;61.30;;;;;;5033644;28;20071;-72
2023/06/04 03:49:35;;;;;;;7.35;6.38;;;15.10;61.80;;;;;;5033446;28;20402;-72
2023/06/04 03:52:01;;;;;;;9.40;6.95;;;15.10;60.40;;;;;;5033472;28;20021;-72
2023/06/04 03:54:26;;;;;;;7.18;6.38;;;15.10;60.50;;;;;;5032114;28;20604;-72
2023/06/04 03:56:52;;;;;;;8.50;6.57;;;15.10;60.30;;;;;;5033371;28;20091;-72
2023/06/04 03:59:17;;;;;;;6.88;6.03;;;15.20;60.10;;;;;;5033394;28;20494;-72
2023/06/04 04:01:43;;;;;;;10.18;6.55;;;15.20;59.70;;;;;;5031992;28;20025;-72
2023/06/04 04:04:09;;;;;;;6.28;5.40;;;15.10;59.80;;;;;;5033407;28;20026;-72
2023/06/04 04:06:35;;;;;;;6.97;6.28;;;15.10;59.80;;;;;;5033275;28;20356;-73
2023/06/04 04:09:02;;;;;;;7.35;5.00;;;15.10;59.90;;;;;;5033218;28;20025;-72
2023/06/04 04:11:27;;;;;;;7.53;5.90;;;15.10;59.90;;;;;;5033510;28;20029;-72
2023/06/04 04:13:53;;;;;;;8.18;6.18;;;15.10;59.90;;;;;;5033212;28;20086;-72
2023/06/04 04:16:18;;;;;;;8.10;5.57;;;15.10;59.60;;;;;;5033091;28;20049;-72
2023/06/04 04:18:44;;;;;;;11.05;6.30;;;15.20;59.60;;;;;;5033175;28;20064;-72
2023/06/04 04:21:10;;;;;;;11.05;6.68;;;15.20;59.40;;;;;;5032920;28;20428;-72
2023/06/04 04:23:38;;;;;;;9.27;6.05;;;15.30;59.40;;;;;;5032953;28;20029;-73
2023/06/04 04:26:04;;;;;;;7.75;6.35;;;15.30;59.30;;;;;;5033040;28;20032;-72
2023/06/04 04:28:32;;;;;;;8.40;6.18;;;15.30;59.30;;;;;;5033035;28;20025;-72
2023/06/04 04:30:59;;;;;;;8.18;6.25;;;15.40;59.40;;;;;;5033021;28;20026;-72
2023/06/04 04:33:25;;;;;;;12.27;6.40;;;15.40;59.30;;;;;;5032921;28;20108;-72
2023/06/04 04:35:52;;;;;;;8.10;5.45;;;15.50;59.10;;;;;;5031412;28;20054;-73
2023/06/04 04:38:19;;;;;;;8.43;5.90;;;15.50;59.00;;;;;;5033195;28;20029;-72
2023/06/04 04:40:47;;;;;;;6.93;5.47;;;15.60;58.80;;;;;;5032686;28;20417;-72
2023/06/04 04:43:13;;;;;;;6.57;5.68;;;15.60;58.50;;;;;;5032950;28;20045;-72
2023/06/04 04:45:38;;;;;;;5.75;5.20;;;15.60;58.50;;;;;;5032854;28;20103;-72
2023/06/04 04:48:04;;;;;;;6.70;5.38;;;15.60;58.50;;;;;;5032766;28;20018;-72
2023/06/04 04:50:31;;;;;;;7.57;5.65;;;15.60;58.50;;;;;;5032795;28;20037;-72
2023/06/04 04:52:57;;;;;;;7.60;5.65;;;15.60;58.60;;;;;;5032730;28;20033;-72
2023/06/04 04:55:23;;;;;;;6.78;5.65;;;15.70;58.70;;;;;;5032879;28;20117;-72
2023/06/04 04:57:48;;;;;;;11.85;6.30;;;15.80;58.50;;;;;;5032876;28;20544;-72
2023/06/04 05:00:15;;;;;;;8.70;6.03;;;15.80;58.30;;;;;;5032474;28;20152;-72
2023/06/04 05:02:41;;;;;;;9.85;5.55;;;15.80;58.10;;;;;;5031414;28;20072;-72
2023/06/04 05:05:06;;;;;;;7.78;6.05;;;15.90;58.00;;;;;;5032681;28;20030;-72
2023/06/04 05:07:32;;;;;;;7.85;6.35;;;15.90;57.80;;;;;;5032589;28;20033;-72
2023/06/04 05:09:58;;;;;;;7.55;5.90;;;16.00;57.50;;;;;;5032731;28;20402;-72
2023/06/04 05:12:26;;;;;;;8.63;5.35;;;16.10;57.20;;;;;;5032543;28;20029;-71
2023/06/04 05:14:52;;;;;;;6.53;5.70;;;16.20;56.90;;;;;;5031444;28;20030;-71
2023/06/04 05:17:29;;;;;;;8.45;6.00;;;16.30;56.80;;;;;;5032532;28;20112;-71
2023/06/04 05:20:04;;;;;;;9.32;6.50;;;16.40;56.60;;;;;;5032352;28;20026;-71
2023/06/04 05:22:32;;;;;;;;;;;16.50;56.30;;;;;;5032666;28;20076;-71
2023/06/04 05:24:59;;;;;;;10.18;6.32;;;16.60;56.00;;;;;;5032439;28;19909;-71
2023/06/04 05:27:24;;;;;;;11.18;6.82;;;16.70;55.90;;;;;;5032489;28;20112;-71
2023/06/04 05:29:50;;;;;;;7.80;6.35;;;16.80;55.70;;;;;;5032505;28;20486;-71
2023/06/04 05:32:16;;;;;;;8.48;7.15;;;16.90;55.10;;;;;;5032447;28;20033;-71
2023/06/04 05:34:42;;;;;;;11.35;7.72;;;16.90;54.50;;;;;;5032331;28;20075;-71
2023/06/04 05:37:08;;;;;;;10.77;7.72;;;16.90;54.70;;;;;;5032675;28;20032;-71
2023/06/04 05:39:34;;;;;;;8.23;7.20;;;16.90;54.60;;;;;;5032235;28;20025;-71
2023/06/04 05:42:00;;;;;;;10.95;7.68;;;17.00;54.40;;;;;;5032385;28;20037;-71
2023/06/04 05:44:25;;;;;;;9.55;7.60;;;16.90;54.50;;;;;;5032752;28;20144;-71
2023/06/04 05:46:51;;;;;;;6.78;6.00;;;16.80;54.80;;;;;;5035773;28;20044;-71
2023/06/04 05:49:16;;;;;;;7.85;6.05;;;17.00;54.70;;;;;;5035664;28;20053;-71
2023/06/04 05:51:42;;;;;;;8.35;6.20;;;17.10;54.50;;;;;;5035837;28;20029;-71
2023/06/04 05:54:07;;;;;;;10.35;6.25;;;17.30;54.30;;;;;;5035609;28;20053;-71
2023/06/04 05:56:33;;;;;;;10.65;6.65;;;17.50;54.00;;;;;;5035550;28;20095;-71
2023/06/04 05:58:58;;;;;;;9.50;6.22;;;17.60;53.60;;;;;;5035581;28;20101;-71
2023/06/04 06:01:24;;;;;;;7.60;5.95;;;17.70;53.50;;;;;;5035415;28;20057;-71
2023/06/04 06:03:50;;;;;;;9.48;6.45;;;17.80;53.10;;;;;;5035408;28;20052;-71
2023/06/04 06:06:16;;;;;;;8.48;5.70;;;17.80;52.50;;;;;;5035873;28;20022;-71
2023/06/04 06:08:41;;;;;;;7.38;6.10;;;17.90;51.90;;;;;;5035529;28;20033;-71
2023/06/04 06:11:07;;;;;;;7.85;6.72;;;18.00;51.60;;;;;;5035636;28;20052;-71
2023/06/04 06:13:32;;;;;;;9.68;6.07;;;18.00;52.00;;;;;;5035190;28;20038;-71
2023/06/04 06:15:58;;;;;;;9.43;6.60;;;18.10;51.90;;;;;;5035222;28;20068;-71
2023/06/04 06:18:23;;;;;;;12.15;7.13;;;18.10;51.30;;;;;;5035253;28;20048;-71
2023/06/04 06:20:49;;;;;;;10.30;7.10;;;18.10;51.50;;;;;;5035258;28;20026;-71
2023/06/04 06:23:16;;;;;;;11.27;7.78;;;18.00;52.00;;;;;;5035301;28;20045;-71
2023/06/04 06:25:45;;;;;;;15.63;8.07;;;18.00;52.70;;;;;;5035174;28;20021;-71
2023/06/04 06:28:11;;;;;;;9.55;7.35;;;18.00;52.50;;;;;;5035254;28;20030;-71
2023/06/04 06:30:37;;;;;;;9.15;7.18;;;18.00;54.00;;;;;;5035038;28;20038;-71
2023/06/04 06:33:02;;;;;;;12.23;7.63;;;17.90;54.70;;;;;;5034634;28;20036;-71
2023/06/04 06:35:28;;;;;;;9.02;7.35;;;18.00;54.20;;;;;;5034856;28;20021;-71
2023/06/04 06:37:53;;;;;;;15.57;8.75;;;18.00;54.50;;;;;;5035080;28;20466;-71
2023/06/04 06:40:19;;;;;;;13.02;7.82;;;18.10;54.00;;;;;;5034860;28;20109;-71
2023/06/04 06:42:51;;;;;;;13.20;7.53;;;18.00;53.50;;;;;;5034795;28;20564;-71
2023/06/04 06:45:18;;;;;;;13.35;8.10;;;18.10;53.60;;;;;;5034878;28;20025;-71
2023/06/04 06:47:45;;;;;;;23.70;8.60;;;18.20;53.10;;;;;;5034805;28;20018;-73
2023/06/04 06:50:11;;;;;;;17.50;8.18;;;18.50;62.40;;;;;;5033147;28;20452;-74
2023/06/04 06:52:37;;;;;;;14.32;6.75;;;18.90;58.70;;;;;;5033234;28;20060;-75
2023/06/04 06:55:04;;;;;;;10.65;6.30;;;19.20;56.30;;;;;;5033501;28;20562;-74
2023/06/04 06:57:30;;;;;;;8.27;5.57;;;19.50;52.00;;;;;;5032400;28;20057;-74
2023/06/04 06:59:56;;;;;;;9.73;6.22;;;19.80;50.80;;;;;;5033431;28;20060;-75
2023/06/04 07:02:23;;;;;;;9.55;6.13;;;20.10;48.40;;;;;;5033210;28;20145;-77
2023/06/04 07:04:48;;;;;;;9.93;6.30;;;20.30;48.10;;;;;;5033194;28;20021;-77
2023/06/04 07:07:14;;;;;;;9.05;5.43;;;20.40;46.10;;;;;;5033464;28;20025;-76
2023/06/04 07:09:40;;;;;;;8.40;5.35;;;20.40;46.90;;;;;;5033237;28;20034;-77
2023/06/04 07:12:06;;;;;;;11.25;5.68;;;20.30;46.60;;;;;;5033087;28;20028;-76
2023/06/04 07:14:32;;;;;;;8.02;6.63;;;20.40;46.60;;;;;;5032954;28;20033;-77
2023/06/04 07:16:57;;;;;;;8.48;6.40;;;20.20;47.20;;;;;;5033242;28;20108;-78
2023/06/04 07:19:23;;;;;;;12.95;6.38;;;20.30;47.10;;;;;;5033162;28;20040;-71
2023/06/04 07:21:50;;;;;;;13.45;7.43;;;20.50;47.50;;;;;;5032841;28;20578;-71
2023/06/04 07:24:15;;;;;;;10.55;6.25;;;20.70;47.30;;;;;;5034080;28;20026;-71
2023/06/04 07:26:41;;;;;;;9.48;6.07;;;20.90;45.90;;;;;;5034031;28;20374;-71
2023/06/04 07:29:07;;;;;;;8.07;6.10;;;20.90;45.20;;;;;;5032623;28;20029;-72
2023/06/04 07:31:33;;;;;;;11.27;6.13;;;20.90;45.30;;;;;;5033515;28;20025;-75
2023/06/04 07:33:58;;;;;;;7.30;6.05;;;20.90;45.00;;;;;;5032837;28;20025;-75
2023/06/04 07:36:24;;;;;;;6.68;5.00;;;20.90;43.70;;;;;;5035334;28;20390;-75
2023/06/04 07:38:49;;;;;;;10.68;5.72;;;20.80;45.60;;;;;;5032697;28;20031;-75
2023/06/04 07:41:15;;;;;;;8.88;5.35;;;21.00;44.80;;;;;;5032474;28;20018;-75
2023/06/04 07:43:43;;;;;;;7.45;5.68;;;21.20;44.30;;;;;;5032432;28;20091;-76
2023/06/04 07:46:09;;;;;;;8.00;5.43;;;21.40;44.00;;;;;;5031598;28;20028;-75
2023/06/04 07:48:35;;;;;;;9.50;5.93;;;21.10;43.10;;;;;;5031616;28;20484;-75
2023/06/04 07:51:03;;;;;;;8.35;5.68;;;21.00;45.10;;;;;;5032252;28;20120;-75
2023/06/04 07:53:28;;;;;;;8.27;5.32;;;21.20;44.40;;;;;;5031737;28;20076;-75
2023/06/04 07:55:54;;;;;;;8.20;6.20;;;21.10;45.20;;;;;;5032213;28;20025;-76
2023/06/04 07:58:20;;;;;;;8.57;4.90;;;21.00;45.00;;;;;;5032511;28;20067;-75
2023/06/04 08:00:46;;;;;;;8.52;5.68;;;20.90;46.40;;;;;;5032243;28;20029;-75
2023/06/04 08:03:11;;;;;;;12.52;5.68;;;21.10;46.00;;;;;;5031889;28;20064;-75
2023/06/04 08:05:37;;;;;;;11.52;6.45;;;21.20;45.90;;;;;;5032142;28;20029;-75
2023/06/04 08:08:05;;;;;;;9.13;5.40;;;21.10;45.20;;;;;;5031577;28;20092;-75
2023/06/04 08:10:31;;;;;;;9.18;5.07;;;21.10;46.00;;;;;;5032094;28;20029;-75
2023/06/04 08:12:57;;;;;;;8.38;5.00;;;21.20;45.80;;;;;;5032086;28;20401;-75
2023/06/04 08:15:23;;;;;;;6.65;4.88;;;21.50;45.20;;;;;;5031300;28;20498;-75
2023/06/04 08:17:49;;;;;;;10.80;5.63;;;21.60;44.20;;;;;;5032915;28;20108;-75
2023/06/04 08:20:14;;;;;;;6.80;4.88;;;21.70;43.90;;;;;;5031958;28;20167;-75
2023/06/04 08:22:40;;;;;;;8.18;4.68;;;21.90;43.70;;;;;;5032034;28;20037;-75
2023/06/04 08:25:08;;;;;;;9.20;4.97;;;21.80;43.60;;;;;;5015403;28;20071;-75
2023/06/04 08:27:34;;;;;;;8.35;4.80;;;21.90;44.40;;;;;;5031988;28;20036;-75
2023/06/04 08:30:00;;;;;;;9.40;5.13;;;21.90;43.70;;;;;;5031941;28;20386;-75
2023/06/04 08:32:25;;;;;;;9.40;5.97;;;22.00;43.80;;;;;;5031488;28;20026;-74
2023/06/04 08:34:51;;;;;;;8.90;5.88;;;21.50;44.60;;;;;;5031388;28;20536;-74
2023/06/04 08:37:19;;;;;;;9.65;5.22;;;21.50;45.40;;;;;;5031728;28;20087;-75
2023/06/04 08:39:45;;;;;;;7.43;4.45;;;21.40;45.70;;;;;;5031887;28;20021;-74
2023/06/04 08:42:21;;;;;;;5.28;4.35;;;21.70;44.90;;;;;;5031796;28;20060;-74
2023/06/04 08:44:50;;;;;;;6.28;5.00;;;21.90;44.30;;;;;;5031800;28;20018;-74
2023/06/04 08:47:18;;;;;;;5.75;4.30;;;22.00;43.70;;;;;;5031063;28;20034;-75
2023/06/04 08:49:48;;;;;;;12.23;5.55;;;22.30;43.20;;;;;;5030799;28;20068;-74
2023/06/04 08:52:13;;;;;;;6.63;4.05;;;22.50;42.60;;;;;;5031315;28;20032;-75
2023/06/04 08:54:39;;;;;;;5.82;3.95;;;22.50;42.20;;;;;;5031693;28;20022;-74
2023/06/04 08:57:05;;;;;;;8.18;4.32;;;22.60;42.60;;;;;;5032095;28;20116;-75
2023/06/04 08:59:31;;;;;;;7.80;4.30;;;22.70;41.50;;;;;;5031169;28;20116;-75
2023/06/04 09:01:58;;;;;;;6.85;4.50;;;22.70;42.40;;;;;;5030985;28;20461;-75
2023/06/04 09:04:24;;;;;;;10.20;5.03;;;22.70;42.30;;;;;;5031573;28;20493;-75
2023/06/04 09:06:51;;;;;;;6.28;4.10;;;22.40;42.60;;;;;;5031509;28;20128;-74
2023/06/04 09:09:18;;;;;;;9.05;5.00;;;22.20;44.10;;;;;;5031234;28;20636;-74
2023/06/04 09:11:53;;;;;;;7.65;4.43;;;22.30;42.50;;;;;;5031325;28;20075;-76
2023/06/04 09:14:18;;;;;;;8.00;4.93;;;22.30;43.70;;;;;;5031285;28;20484;-75
2023/06/04 09:16:51;;;;;;;9.02;4.82;;;22.10;42.90;;;;;;5031072;28;20021;-76
2023/06/04 09:19:19;;;;;;;10.38;4.38;;;22.10;44.40;;;;;;5031329;28;20032;-75
2023/06/04 09:21:51;;;;;;;9.18;5.05;;;22.10;43.30;;;;;;5036203;28;20025;-76
2023/06/04 09:24:18;;;;;;;11.02;4.35;;;22.10;43.30;;;;;;5035127;28;20422;-75
2023/06/04 09:26:43;;;;;;;9.90;4.20;;;22.20;43.70;;;;;;5035162;28;20032;-76
2023/06/04 09:29:09;;;;;;;8.85;4.50;;;22.40;43.40;;;;;;5034957;28;20029;-76
2023/06/04 09:31:39;;;;;;;9.85;4.68;;;22.50;44.30;;;;;;5034958;28;20026;-76
2023/06/04 09:34:05;;;;;;;9.07;4.55;;;22.60;43.30;;;;;;5034422;28;20021;-75
2023/06/04 09:36:32;;;;;;;7.38;4.60;;;22.60;43.60;;;;;;5035134;28;20040;-76
2023/06/04 09:38:57;;;;;;;8.85;4.68;;;22.90;42.20;;;;;;5034919;28;20494;-75
2023/06/04 09:41:23;;;;;;;6.40;4.53;;;22.80;42.80;;;;;;5034336;28;20041;-75
2023/06/04 09:43:49;;;;;;;8.18;4.82;;;22.80;42.10;;;;;;5034867;28;20116;-75
2023/06/04 09:46:18;;;;;;;8.05;4.50;;;22.90;42.20;;;;;;5034323;28;20025;-75
2023/06/04 09:48:44;;;;;;;5.03;4.15;;;23.00;41.50;;;;;;5034016;28;20057;-75
2023/06/04 09:51:15;;;;;;;7.63;4.45;;;22.80;41.70;;;;;;5034618;28;20048;-75
2023/06/04 09:53:41;;;;;;;9.63;4.25;;;23.20;42.00;;;;;;5034584;28;20022;-76
2023/06/04 09:56:08;;;;;;;6.45;4.30;;;23.50;41.60;;;;;;5034509;28;20486;-76
2023/06/04 09:58:35;;;;;;;8.18;4.10;;;23.90;39.50;;;;;;5034226;28;20060;-76
2023/06/04 10:01:03;;;;;;;12.38;3.97;;;24.10;38.90;;;;;;5034556;28;20029;-75
2023/06/04 10:03:34;;;;;;;11.25;5.10;;;24.10;38.80;;;;;;5034393;28;20040;-75
2023/06/04 10:06:03;;;;;;;8.05;4.65;;;24.10;39.00;;;;;;5034179;28;20108;-74
2023/06/04 10:08:31;;;;;;;5.45;4.00;;;23.90;39.10;;;;;;5033932;28;20490;-76
2023/06/04 10:11:01;;;;;;;4.43;3.40;;;24.00;38.90;;;;;;5034125;28;20425;-75
2023/06/04 10:13:30;;;;;;;6.40;4.22;;;24.20;38.80;;;;;;5034098;28;20114;-76
2023/06/04 10:16:00;;;;;;;4.70;3.58;;;24.60;37.30;;;;;;5034124;28;20381;-75
2023/06/04 10:18:28;;;;;;;5.10;3.92;;;24.90;37.00;;;;;;5034246;28;20083;-76
2023/06/04 10:20:56;;;;;;;6.40;4.25;;;25.10;35.80;;;;;;5033950;28;20028;-77
2023/06/04 10:23:22;;;;;;;5.80;4.07;;;25.20;34.50;;;;;;5033868;28;20041;-75
2023/06/04 10:25:53;;;;;;;5.72;4.40;;;25.50;33.60;;;;;;5034030;28;20474;-75
2023/06/04 10:28:22;;;;;;;5.25;4.22;;;25.80;32.10;;;;;;5034049;28;20381;-75
2023/06/04 10:30:50;;;;;;;7.35;4.53;;;25.80;31.20;;;;;;5033901;28;20022;-75
2023/06/04 10:33:19;;;;;;;6.03;4.30;;;25.70;28.80;;;;;;5034058;28;20153;-75
2023/06/04 10:35:45;;;;;;;9.93;4.90;;;25.80;30.90;;;;;;5035027;28;20018;-75
2023/06/04 10:38:14;;;;;;;7.75;4.40;;;25.90;29.10;;;;;;5033572;28;20039;-75
2023/06/04 10:40:40;;;;;;;7.47;4.22;;;26.10;29.90;;;;;;5033393;28;20036;-75
2023/06/04 10:43:10;;;;;;;10.30;4.55;;;26.30;29.70;;;;;;5033407;28;20033;-75
2023/06/04 10:45:36;;;;;;;6.20;4.43;;;26.40;29.00;;;;;;5033870;28;20562;-75
2023/06/04 10:48:09;;;;;;;5.72;4.88;;;26.60;29.20;;;;;;5033568;28;20022;-77
2023/06/04 10:50:47;;;;;;;4.93;3.97;;;26.80;28.20;;;;;;5035491;28;20064;-75
2023/06/04 10:53:13;;;;;;;4.68;3.50;;;26.80;28.50;;;;;;5033603;28;20021;-75
2023/06/04 10:55:46;;;;;;;5.22;4.20;;;26.80;28.30;;;;;;5033217;28;20493;-75
2023/06/04 10:58:12;;;;;;;5.43;3.60;;;26.70;28.60;;;;;;5033321;28;20390;-75
2023/06/04 11:00:39;;;;;;;5.43;3.50;;;26.50;30.60;;;;;;5033326;28;20394;-75
2023/06/04 11:03:09;;;;;;;7.68;3.60;;;26.40;31.50;;;;;;5033189;28;20060;-75
2023/06/04 11:05:38;;;;;;;6.75;3.90;;;26.30;31.50;;;;;;5033589;28;20021;-75
2023/06/04 11:08:05;;;;;;;4.32;3.92;;;26.10;32.00;;;;;;5033269;28;20032;-75
2023/06/04 11:10:40;;;;;;;8.60;4.10;;;25.90;31.80;;;;;;5033277;28;20057;-76
2023/06/04 11:13:06;;;;;;;5.90;4.05;;;26.00;32.10;;;;;;5033161;28;20025;-75
2023/06/04 11:15:42;;;;;;;6.70;4.60;;;26.30;30.50;;;;;;5032980;28;20030;-76
2023/06/04 11:18:13;;;;;;;7.13;4.30;;;26.60;29.50;;;;;;5032646;28;20192;-75
2023/06/04 11:20:39;;;;;;;6.22;4.35;;;26.80;30.20;;;;;;5033055;28;20378;-75
2023/06/04 11:23:05;;;;;;;5.38;3.50;;;26.70;29.40;;;;;;5032712;28;20034;-72
2023/06/04 11:25:32;;;;;;;7.03;4.30;;;26.60;28.80;;;;;;5033804;28;20470;-72
2023/06/04 11:27:59;;;;;;;6.22;4.35;;;26.40;28.80;;;;;;5033224;28;20035;-72
2023/06/04 11:30:25;;;;;;;7.03;3.88;;;26.30;29.00;;;;;;5033363;28;20037;-72
2023/06/04 11:33:00;;;;;;;5.65;4.05;;;26.10;29.30;;;;;;5032011;28;20022;-72
2023/06/04 11:35:26;;;;;;;5.20;3.83;;;25.90;29.10;;;;;;5033420;28;20097;-73
2023/06/04 11:37:56;;;;;;;7.20;4.03;;;25.70;29.70;;;;;;5033584;28;20121;-73
2023/06/04 11:40:22;;;;;;;8.52;4.63;;;25.60;29.60;;;;;;5033670;28;20017;-72
2023/06/04 11:42:48;;;;;;;6.88;4.32;;;25.60;30.50;;;;;;5031818;28;20049;-73
2023/06/04 11:45:18;;;;;;;8.85;4.18;;;25.60;30.70;;;;;;5032368;28;20026;-72
2023/06/04 11:47:48;;;;;;;5.45;3.90;;;25.70;30.80;;;;;;5032163;28;20359;-72
2023/06/04 11:50:13;;;;;;;7.20;4.25;;;25.70;30.80;;;;;;5032167;28;20045;-71
2023/06/04 11:52:40;;;;;;;8.48;4.07;;;25.70;31.00;;;;;;5032402;28;20083;-71
2023/06/04 11:55:09;;;;;;;6.32;4.20;;;25.70;31.20;;;;;;5033341;28;20104;-72
2023/06/04 11:57:36;;;;;;;5.13;4.25;;;25.70;31.20;;;;;;5032152;28;20023;-71
2023/06/04 12:00:02;;;;;;;5.72;3.70;;;25.70;31.00;;;;;;5033205;28;20367;-72
2023/06/04 12:02:27;;;;;;;6.30;3.85;;;25.60;31.40;;;;;;5032105;28;20065;-73
2023/06/04 12:04:53;;;;;;;5.82;3.80;;;25.60;31.30;;;;;;5031932;28;20382;-73
2023/06/04 12:07:24;;;;;;;6.05;4.35;;;25.70;31.80;;;;;;5032045;28;20037;-73
2023/06/04 12:09:50;;;;;;;6.25;4.10;;;25.80;31.40;;;;;;5032120;28;20079;-72
2023/06/04 12:12:21;;;;;;;8.80;4.20;;;25.70;31.00;;;;;;5032113;28;20026;-73
2023/06/04 12:14:47;;;;;;;7.07;3.80;;;25.70;31.80;;;;;;5032023;28;20018;-72
2023/06/04 12:17:13;;;;;;;5.40;3.78;;;25.80;32.40;;;;;;5032186;28;20026;-77
2023/06/04 12:19:50;;;;;;;8.20;4.05;;;25.80;31.20;;;;;;5032203;28;20095;-73
2023/06/04 12:22:15;;;;;;;5.40;3.72;;;25.90;31.40;;;;;;5031913;28;20037;-72
2023/06/04 12:24:55;;;;;;;6.80;3.95;;;26.30;31.50;;;;;;5032285;28;20029;-74
2023/06/04 12:27:23;;;;;;;6.60;4.35;;;26.40;31.30;;;;;;5031760;28;20060;-73
2023/06/04 12:30:05;;;;;;;6.13;4.40;;;26.30;29.70;;;;;;5032067;28;20026;-72
2023/06/04 12:32:35;;;;;;;7.53;4.07;;;26.10;29.80;;;;;;5031824;28;20017;-73
2023/06/04 12:35:01;;;;;;;4.80;4.25;;;26.00;31.20;;;;;;5031781;28;20029;-74
2023/06/04 12:37:27;;;;;;;6.80;4.65;;;25.80;30.60;;;;;;5031602;28;20041;-74
2023/06/04 12:39:53;;;;;;;8.25;4.10;;;25.80;30.90;;;;;;5031871;28;20030;-74
2023/06/04 12:42:20;;;;;;;4.47;3.90;;;26.00;30.50;;;;;;5031746;28;20037;-73
2023/06/04 12:44:46;;;;;;;6.53;4.65;;;26.20;31.30;;;;;;5031899;28;20029;-73